Time;durP1;ratioP1;P1;durP2;ratioP2;P2;SDS_P1;SDS_P2;PMS_P1;PMS_P2;Temp;Humidity;BMP_temperature;BMP_pressure;BME280_temperature;BME280_humidity;BME280_pressure;Samples;Min_cycle;Max_cycle;Signal;HPM_P1;HPM_P2
2022/05/01 00:00:08;;;;;;;3.70;2.85;;;;;;;8.13;72.55;101395.70;1711816;83;21026;-44
2022/05/01 00:02:34;;;;;;;5.35;3.17;;;;;;;8.07;72.84;101395.22;1683920;83;20951;-43
2022/05/01 00:05:01;;;;;;;4.58;2.72;;;;;;;8.01;73.53;101394.77;1711944;83;20935;-43
2022/05/01 00:07:28;;;;;;;5.28;2.52;;;;;;;7.97;73.85;101393.03;1707177;83;21223;-43
2022/05/01 00:09:55;;;;;;;5.00;2.72;;;;;;;7.92;74.26;101393.39;1711684;83;20982;-43
2022/05/01 00:12:22;;;;;;;3.80;2.95;;;;;;;7.89;74.75;101393.37;1711689;83;20892;-44
2022/05/01 00:14:49;;;;;;;5.78;3.10;;;;;;;7.86;75.20;101395.52;1711891;83;20951;-43
2022/05/01 00:17:16;;;;;;;5.33;2.77;;;;;;;7.84;75.23;101398.93;1711895;83;21546;-43
2022/05/01 00:19:42;;;;;;;5.92;2.90;;;;;;;7.82;75.58;101401.92;1712058;83;21438;-43
2022/05/01 00:22:09;;;;;;;10.80;3.50;;;;;;;7.78;75.37;101397.16;1711696;83;20951;-43
2022/05/01 00:24:37;;;;;;;3.12;2.58;;;;;;;7.78;75.33;101395.86;1710710;81;20928;-43
2022/05/01 00:27:05;;;;;;;6.40;2.42;;;;;;;7.79;75.34;101398.03;1757598;81;20920;-43
2022/05/01 00:29:32;;;;;;;3.02;2.72;;;;;;;7.80;75.37;101403.18;1757811;80;21573;-43
2022/05/01 00:31:58;;;;;;;4.95;3.00;;;;;;;7.80;75.47;101399.76;1757666;81;21224;-43
2022/05/01 00:37:09;;;;;;;7.55;2.72;;;;;;;7.81;75.71;101406.20;1757696;81;20971;-43
2022/05/01 00:39:37;;;;;;;3.62;2.77;;;;;;;7.79;75.57;101405.77;1757554;81;21018;-43
2022/05/01 00:42:04;;;;;;;6.67;2.87;;;;;;;7.83;76.12;101406.23;1757829;80;20929;-43
2022/05/01 00:44:32;;;;;;;4.17;2.42;;;;;;;7.87;77.56;101414.42;1757971;81;21186;-43
2022/05/01 00:47:03;;;;;;;2.83;2.62;;;;;;;7.91;79.07;101409.72;1757706;81;20995;-43
2022/05/01 00:49:28;;;;;;;4.12;2.30;;;;;;;7.94;79.87;101412.31;1757412;81;21485;-43
2022/05/01 00:52:01;;;;;;;6.42;2.52;;;;;;;7.95;80.39;101415.33;1757753;81;21466;-43
2022/05/01 00:54:31;;;;;;;4.60;2.65;;;;;;;7.96;79.89;101409.77;1757764;81;20881;-43
2022/05/01 00:57:01;;;;;;;7.37;2.42;;;;;;;7.96;79.45;101410.64;1757889;81;21175;-43
2022/05/01 00:59:29;;;;;;;4.65;2.72;;;;;;;7.97;78.44;101407.63;1757676;81;20916;-43
2022/05/01 01:01:56;;;;;;;5.55;2.22;;;;;;;8.00;77.89;101405.06;1757842;81;21447;-43
2022/05/01 01:04:22;;;;;;;2.85;2.30;;;;;;;8.02;77.02;101407.22;1757852;81;21597;-43
2022/05/01 01:06:49;;;;;;;2.85;2.45;;;;;;;8.02;76.44;101414.55;1757820;81;20963;-43
2022/05/01 01:09:16;;;;;;;4.15;2.55;;;;;;;8.03;76.37;101413.70;1757731;81;21245;-43
2022/05/01 01:11:44;;;;;;;6.35;2.55;;;;;;;8.03;76.63;101413.70;1757854;81;21402;-44
2022/05/01 01:14:12;;;;;;;5.47;2.60;;;;;;;8.03;76.03;101412.41;1757786;81;21030;-43
2022/05/01 01:16:44;;;;;;;3.85;2.45;;;;;;;8.03;75.65;101411.12;1757671;81;20944;-43
2022/05/01 01:19:08;;;;;;;5.37;2.72;;;;;;;8.01;75.40;101408.95;1757426;81;20976;-43
2022/05/01 01:21:35;;;;;;;5.78;2.22;;;;;;;8.01;75.26;101407.66;1757716;81;21115;-43
2022/05/01 01:24:06;;;;;;;2.98;2.62;;;;;;;8.00;75.17;101402.48;1757125;81;20896;-43
2022/05/01 01:26:34;;;;;;;5.22;2.27;;;;;;;7.98;75.17;101403.78;1698025;82;20881;-43
2022/05/01 01:29:00;;;;;;;6.53;3.08;;;;;;;7.97;75.04;101405.05;1722438;82;20909;-43
2022/05/01 01:31:42;;;;;;;4.72;2.72;;;;;;;7.95;74.83;101407.59;1750071;82;20936;-43
2022/05/01 01:34:14;;;;;;;5.62;2.77;;;;;;;7.95;75.00;101409.33;1749911;80;21283;-43
2022/05/01 01:36:42;;;;;;;7.53;2.47;;;;;;;7.94;75.02;101408.89;1722227;82;21489;-43
2022/05/01 01:39:10;;;;;;;5.92;2.37;;;;;;;7.93;75.01;101413.17;1749811;82;20929;-43
2022/05/01 01:41:37;;;;;;;3.05;2.42;;;;;;;7.91;74.92;101413.17;1749902;82;20943;-44
2022/05/01 01:44:05;;;;;;;9.03;3.47;;;;;;;7.91;75.02;101416.16;1715010;82;20885;-44
2022/05/01 01:46:33;;;;;;;5.92;2.62;;;;;;;7.91;75.26;101413.17;1722392;82;21169;-44
2022/05/01 01:48:59;;;;;;;6.33;3.00;;;;;;;7.91;75.29;101414.88;1749750;82;21400;-44
2022/05/01 01:51:26;;;;;;;3.55;2.70;;;;;;;7.93;75.13;101420.91;1750007;82;20921;-44
2022/05/01 01:53:53;;;;;;;6.75;2.70;;;;;;;7.95;74.83;101423.06;1749907;82;20940;-43
2022/05/01 01:56:20;;;;;;;10.48;2.70;;;;;;;7.96;74.59;101419.67;1749908;82;20888;-44
2022/05/01 01:58:48;;;;;;;6.28;2.83;;;;;;;7.97;74.48;101419.22;1749916;82;21275;-44
2022/05/01 02:01:14;;;;;;;4.00;2.58;;;;;;;7.97;74.21;101421.80;1749860;81;21522;-43
2022/05/01 02:03:41;;;;;;;3.42;2.72;;;;;;;7.96;74.07;101422.66;1749815;81;20838;-44
2022/05/01 02:06:08;;;;;;;5.53;2.62;;;;;;;7.96;73.83;101426.11;1749969;82;20941;-44
2022/05/01 02:08:35;;;;;;;5.15;2.50;;;;;;;7.97;73.76;101424.38;1750089;81;21517;-44
2022/05/01 02:11:04;;;;;;;3.98;2.67;;;;;;;7.98;73.78;101425.70;1698069;82;21262;-43
2022/05/01 02:13:31;;;;;;;5.75;2.92;;;;;;;7.99;73.60;101430.41;1722100;82;21577;-44
2022/05/01 02:15:57;;;;;;;6.00;2.83;;;;;;;8.01;73.54;101433.86;1750043;82;20885;-44
2022/05/01 02:18:25;;;;;;;7.65;2.85;;;;;;;8.01;73.55;101437.32;1749951;82;20845;-44
2022/05/01 02:23:37;;;;;;;5.42;2.58;;;;;;;8.01;73.39;101429.58;1749790;81;21201;-45
2022/05/01 02:26:04;;;;;;;8.70;2.52;;;;;;;8.03;73.44;101435.61;1739378;81;21008;-44
2022/05/01 02:28:30;;;;;;;3.05;2.67;;;;;;;8.05;73.46;101436.48;1735854;82;20996;-45
2022/05/01 02:30:58;;;;;;;3.50;2.80;;;;;;;8.07;73.34;101435.63;1735927;82;20992;-44
2022/05/01 02:33:25;;;;;;;3.95;2.72;;;;;;;8.10;73.17;101429.20;1736052;82;20850;-44
2022/05/01 02:35:52;;;;;;;7.80;3.02;;;;;;;8.11;73.02;101438.67;1735850;81;21232;-44
2022/05/01 02:38:18;;;;;;;6.85;2.85;;;;;;;8.13;72.87;101439.12;1735771;82;20894;-44
2022/05/01 02:40:45;;;;;;;3.47;2.58;;;;;;;8.16;72.66;101449.88;1735955;82;20893;-44
2022/05/01 02:43:11;;;;;;;9.75;2.40;;;;;;;8.17;72.61;101450.31;1735847;82;20984;-44
2022/05/01 02:45:39;;;;;;;7.00;2.25;;;;;;;8.19;72.65;101447.31;1735915;82;20991;-44
2022/05/01 02:48:06;;;;;;;4.17;2.85;;;;;;;8.20;72.54;101451.63;1735906;82;21234;-44
2022/05/01 02:50:33;;;;;;;2.75;2.20;;;;;;;8.20;72.53;101452.50;1735725;81;20886;-44
2022/05/01 02:53:04;;;;;;;4.12;2.47;;;;;;;8.22;72.77;101452.94;1735853;82;20948;-44
2022/05/01 02:55:28;;;;;;;6.37;2.72;;;;;;;8.21;72.79;101448.22;1735831;82;21431;-44
2022/05/01 02:57:55;;;;;;;7.25;3.00;;;;;;;8.23;72.89;101456.83;1736044;82;20997;-44
2022/05/01 03:00:22;;;;;;;3.45;2.65;;;;;;;8.22;72.93;101457.69;1735996;82;21234;-45
2022/05/01 03:02:49;;;;;;;4.35;2.62;;;;;;;8.23;72.94;101458.53;1739564;81;20992;-44
2022/05/01 03:05:16;;;;;;;13.22;3.25;;;;;;;8.23;73.09;101461.98;1735807;82;20965;-44
2022/05/01 03:07:43;;;;;;;5.08;2.60;;;;;;;8.24;73.12;101458.55;1735798;82;21103;-44
2022/05/01 03:10:11;;;;;;;4.37;2.62;;;;;;;8.24;73.19;101453.40;1735884;82;20961;-44
2022/05/01 03:12:38;;;;;;;3.98;2.60;;;;;;;8.27;73.02;101460.27;1735850;82;21241;-44
2022/05/01 03:15:07;;;;;;;9.05;2.55;;;;;;;8.26;72.94;101456.84;1735815;82;20902;-44
2022/05/01 03:23:06;;;;;;;13.03;2.75;;;;;;;8.33;72.35;101459.02;1735959;82;21783;-44
2022/05/01 03:25:34;;;;;;;12.30;3.25;;;;;;;8.37;72.05;101462.50;1735776;82;21273;-44
2022/05/01 03:28:01;;;;;;;6.55;2.42;;;;;;;8.37;71.91;101459.50;1735872;81;20984;-44
2022/05/01 03:30:28;;;;;;;12.43;3.37;;;;;;;8.39;71.87;101463.37;1735960;82;20929;-44
2022/05/01 03:32:55;;;;;;;5.75;3.25;;;;;;;8.42;71.80;101471.13;1735732;82;20897;-44
2022/05/01 03:35:22;;;;;;;10.65;3.47;;;;;;;8.43;71.82;101467.69;1736120;82;20968;-44
2022/05/01 03:37:50;;;;;;;9.90;3.17;;;;;;;8.44;71.70;101465.55;1735832;82;21152;-44
2022/05/01 03:40:17;;;;;;;8.05;2.70;;;;;;;8.46;71.40;101469.88;1735983;82;20897;-44
2022/05/01 03:42:44;;;;;;;5.75;3.10;;;;;;;8.49;71.62;101479.36;1735963;81;21015;-44
2022/05/01 03:45:11;;;;;;;7.42;2.90;;;;;;;8.52;71.51;101480.70;1735934;82;20929;-44
2022/05/01 03:47:38;;;;;;;7.55;3.08;;;;;;;8.54;71.31;101480.28;1735904;82;20924;-44
2022/05/01 03:50:07;;;;;;;6.37;2.75;;;;;;;8.56;71.14;101482.45;1732902;82;21504;-44
2022/05/01 03:52:34;;;;;;;5.75;2.75;;;;;;;8.59;70.93;101487.63;1735873;81;20933;-44
2022/05/01 03:55:00;;;;;;;5.83;2.40;;;;;;;8.60;70.57;101491.93;1735866;82;20964;-44
2022/05/01 03:57:27;;;;;;;10.20;2.65;;;;;;;8.62;70.44;101491.52;1735952;82;20929;-44
2022/05/01 03:59:53;;;;;;;7.03;2.77;;;;;;;8.65;70.25;101498.83;1735986;82;21534;-43
2022/05/01 04:02:20;;;;;;;2.62;2.27;;;;;;;8.66;70.17;101497.98;1736158;82;21464;-45
2022/05/01 04:04:48;;;;;;;3.40;2.12;;;;;;;8.68;70.07;101498.84;1735865;82;21561;-44
2022/05/01 04:07:15;;;;;;;5.87;2.47;;;;;;;8.68;69.74;101495.86;1736134;82;21506;-45
2022/05/01 04:09:43;;;;;;;5.75;2.50;;;;;;;8.67;69.38;101495.42;1735889;82;20897;-45
2022/05/01 04:12:11;;;;;;;3.92;2.42;;;;;;;8.68;69.17;101497.56;1735974;82;21403;-45
2022/05/01 04:14:39;;;;;;;10.00;2.98;;;;;;;8.68;68.74;101498.44;1735830;82;20934;-45
2022/05/01 04:17:06;;;;;;;4.12;2.55;;;;;;;8.69;68.91;101500.58;1735930;82;20881;-45
2022/05/01 04:19:33;;;;;;;32.55;19.40;;;;;;;8.71;68.88;101500.16;1735835;82;21051;-44
2022/05/01 04:21:59;;;;;;;34.53;22.93;;;;;;;8.72;68.07;101501.47;1735937;81;21024;-45
2022/05/01 04:24:26;;;;;;;50.65;35.20;;;;;;;8.73;67.74;101501.91;1736049;82;20937;-45
2022/05/01 04:26:53;;;;;;;8.45;3.02;;;;;;;8.75;67.50;101502.77;1735870;82;21181;-45
2022/05/01 04:29:38;;;;;;;15.63;9.78;;;;;;;8.77;67.44;101503.64;1739508;81;20940;-45
2022/05/01 04:32:07;;;;;;;8.80;3.40;;;;;;;8.82;67.17;101502.80;1736108;82;20906;-43
2022/05/01 04:34:34;;;;;;;43.50;23.42;;;;;;;8.86;67.36;101508.00;1735819;82;20981;-45
2022/05/01 04:37:02;;;;;;;19.15;12.75;;;;;;;8.90;67.21;101507.16;1735916;82;21411;-45
2022/05/01 04:41:09;;;;;;;14.33;5.55;;;;;;;9.03;66.73;101507.23;1798308;79;23194;-42
2022/05/01 04:43:36;;;;;;;46.45;27.35;;;;;;;9.01;66.51;101504.63;1758148;81;20889;-43
2022/05/01 04:46:04;;;;;;;81.35;52.43;;;;;;;9.06;66.40;101510.67;1758145;81;21904;-43
2022/05/01 04:48:32;;;;;;;105.92;55.83;;;;;;;9.13;66.14;101510.28;1757866;81;21502;-43
2022/05/01 04:51:00;;;;;;;89.75;42.50;;;;;;;9.16;66.21;101507.71;1758265;80;21514;-43
2022/05/01 04:53:27;;;;;;;211.43;107.30;;;;;;;9.21;66.11;101509.03;1758016;81;20897;-44
2022/05/01 04:55:53;;;;;;;144.25;76.10;;;;;;;9.24;66.14;101510.33;1758096;81;21470;-44
2022/05/01 04:58:20;;;;;;;103.85;62.30;;;;;;;9.27;65.94;101516.80;1758032;81;21257;-46
2022/05/01 05:00:48;;;;;;;116.55;75.00;;;;;;;9.30;65.61;101510.34;1758142;81;20916;-44
2022/05/01 05:03:16;;;;;;;189.95;97.88;;;;;;;9.36;65.52;101512.55;1743155;81;20928;-44
2022/05/01 05:05:43;;;;;;;161.35;98.07;;;;;;;9.42;65.71;101510.82;1758036;81;20889;-44
2022/05/01 05:10:54;;;;;;;167.85;93.10;;;;;;;9.55;64.72;101510.88;1758068;81;21273;-43
2022/05/01 05:13:27;;;;;;;231.40;144.82;;;;;;;9.60;64.94;101508.73;1757984;81;20908;-45
2022/05/01 05:15:58;;;;;;;182.53;107.20;;;;;;;9.68;64.71;101513.91;1758145;81;20976;-46
2022/05/01 05:18:26;;;;;;;228.05;128.93;;;;;;;9.76;64.81;101516.52;1758097;81;20979;-43
2022/05/01 05:20:52;;;;;;;6.62;4.53;;;;;;;9.87;64.72;101512.23;1757941;81;20979;-43
2022/05/01 05:23:18;;;;;;;212.48;107.52;;;;;;;9.97;64.53;101508.36;1758054;81;21320;-44
2022/05/01 05:25:46;;;;;;;250.93;154.75;;;;;;;10.06;64.43;101510.94;1757941;81;21024;-45
2022/05/01 05:28:13;;;;;;;269.32;154.25;;;;;;;10.17;64.13;101513.53;1758118;81;20929;-45
2022/05/01 05:30:40;;;;;;;311.70;176.70;;;;;;;10.25;63.28;101519.59;1757951;81;21046;-44
2022/05/01 05:33:07;;;;;;;300.80;174.05;;;;;;;10.32;63.35;101518.72;1758087;81;20869;-45
2022/05/01 05:35:34;;;;;;;259.12;170.00;;;;;;;10.47;63.30;101521.76;1758001;81;21263;-44
2022/05/01 05:38:01;;;;;;;259.62;194.67;;;;;;;10.59;62.56;101517.00;1754630;81;20967;-44
2022/05/01 05:40:27;;;;;;;292.27;210.50;;;;;;;10.67;62.17;101518.70;1716682;82;21007;-44
2022/05/01 05:42:55;;;;;;;268.48;197.13;;;;;;;10.72;62.12;101522.14;1736527;82;21455;-44
2022/05/01 05:45:22;;;;;;;240.20;185.78;;;;;;;10.80;62.15;101519.13;1736809;82;21064;-44
2022/05/01 05:47:48;;;;;;;198.00;176.47;;;;;;;10.95;61.70;101518.21;1736393;81;21219;-44
2022/05/01 05:50:15;;;;;;;217.53;193.52;;;;;;;11.07;61.30;101522.05;1736472;82;21546;-44
2022/05/01 05:52:43;;;;;;;187.85;158.95;;;;;;;11.18;61.00;101530.23;1736130;82;20980;-44
2022/05/01 05:55:09;;;;;;;217.70;186.30;;;;;;;11.27;60.61;101528.88;1735900;82;20898;-44
2022/05/01 05:57:36;;;;;;;206.85;179.15;;;;;;;11.25;60.68;101529.33;1735888;82;20925;-44
2022/05/01 06:00:05;;;;;;;198.68;177.57;;;;;;;11.31;60.80;101524.56;1715110;82;21077;-45
2022/05/01 06:02:35;;;;;;;220.48;197.68;;;;;;;11.43;60.97;101528.83;1735537;82;20972;-45
2022/05/01 06:05:01;;;;;;;186.85;166.25;;;;;;;11.49;60.73;101536.15;1735989;82;21044;-44
2022/05/01 06:07:28;;;;;;;199.30;178.70;;;;;;;11.53;60.61;101529.64;1735978;82;21511;-44
2022/05/01 06:09:56;;;;;;;199.82;171.02;;;;;;;11.56;60.05;101536.11;1736181;81;20977;-44
2022/05/01 06:12:23;;;;;;;151.50;130.82;;;;;;;11.54;59.51;101534.80;1735872;82;21127;-45
2022/05/01 06:14:49;;;;;;;175.65;156.40;;;;;;;11.52;59.84;101535.70;1735793;81;20976;-44
2022/05/01 06:17:16;;;;;;;180.97;161.73;;;;;;;11.49;59.08;101534.85;1735869;82;20952;-44
2022/05/01 06:19:42;;;;;;;164.37;147.30;;;;;;;11.46;59.00;101530.95;1735915;82;21446;-43
2022/05/01 06:22:10;;;;;;;183.50;154.55;;;;;;;11.56;58.96;101541.30;1736056;82;20980;-44
2022/05/01 06:24:37;;;;;;;159.60;142.25;;;;;;;11.66;57.89;101531.73;1735850;82;21128;-44
2022/05/01 06:27:04;;;;;;;165.43;147.93;;;;;;;11.73;58.21;101534.71;1735834;82;21039;-45
2022/05/01 06:29:31;;;;;;;123.07;107.43;;;;;;;11.79;57.43;101531.65;1714908;82;20945;-45
2022/05/01 06:31:57;;;;;;;199.55;178.60;;;;;;;11.86;57.00;101540.69;1735718;82;20897;-46
2022/05/01 06:34:24;;;;;;;173.00;154.20;;;;;;;11.87;57.31;101538.52;1735933;82;20905;-44
2022/05/01 06:36:50;;;;;;;191.35;170.92;;;;;;;11.88;56.57;101541.53;1735832;81;21059;-44
2022/05/01 06:39:17;;;;;;;163.85;146.70;;;;;;;11.94;57.32;101545.37;1735800;82;20893;-44
2022/05/01 06:41:43;;;;;;;185.52;165.95;;;;;;;11.95;57.25;101547.09;1725161;81;21493;-45
2022/05/01 06:44:10;;;;;;;245.95;220.80;;;;;;;11.90;58.02;101547.57;1757545;81;21019;-45
2022/05/01 06:46:36;;;;;;;170.17;152.02;;;;;;;11.91;57.98;101550.59;1757751;80;20995;-45
2022/05/01 06:49:02;;;;;;;246.05;221.32;;;;;;;11.99;57.97;101552.69;1757739;81;21225;-45
2022/05/01 06:51:29;;;;;;;255.77;229.72;;;;;;;12.05;57.87;101551.41;1729627;81;20888;-44
2022/05/01 06:53:56;;;;;;;188.20;168.80;;;;;;;12.15;57.75;101550.02;1757515;81;21007;-44
2022/05/01 06:56:22;;;;;;;228.50;205.03;;;;;;;12.25;57.73;101550.82;1757523;81;20967;-45
2022/05/01 06:58:49;;;;;;;169.13;153.10;;;;;;;12.33;57.52;101544.70;1757606;81;20971;-45
2022/05/01 07:01:15;;;;;;;224.50;202.93;;;;;;;12.40;57.55;101540.74;1754812;81;21296;-45
2022/05/01 07:03:43;;;;;;;187.55;167.30;;;;;;;12.32;58.27;101541.67;1757341;80;20944;-45
2022/05/01 07:06:10;;;;;;;244.82;220.00;;;;;;;12.40;58.90;101541.62;1729840;81;20952;-44
2022/05/01 07:08:36;;;;;;;258.65;233.87;;;;;;;12.55;58.43;101540.61;1757667;81;20956;-45
2022/05/01 07:11:03;;;;;;;243.27;219.50;;;;;;;12.70;58.05;101543.92;1757621;81;20884;-44
2022/05/01 07:13:29;;;;;;;252.72;228.73;;;;;;;12.87;57.63;101543.31;1757748;81;21233;-45
2022/05/01 07:15:58;;;;;;;291.73;263.77;;;;;;;13.03;57.04;101544.46;1757648;81;21554;-45
2022/05/01 07:18:25;;;;;;;238.15;216.55;;;;;;;13.15;56.32;101548.20;1754849;81;21478;-43
2022/05/01 07:20:52;;;;;;;200.78;181.28;;;;;;;13.23;56.40;101550.72;1757639;81;20991;-44
2022/05/01 07:23:21;;;;;;;178.60;162.62;;;;;;;13.32;55.53;101548.45;1757767;81;20987;-44
2022/05/01 07:25:47;;;;;;;193.75;176.85;;;;;;;13.38;55.54;101549.66;1757409;81;21205;-44
2022/05/01 07:28:14;;;;;;;160.45;146.13;;;;;;;13.48;54.77;101549.98;1757586;81;21007;-44
2022/05/01 07:30:42;;;;;;;121.72;111.20;;;;;;;13.48;54.38;101551.73;1757684;81;21011;-44
2022/05/01 07:33:08;;;;;;;107.43;98.35;;;;;;;13.52;54.54;101547.37;1757610;81;20928;-45
2022/05/01 07:35:34;;;;;;;99.80;90.95;;;;;;;13.48;54.31;101547.38;1757395;81;20972;-45
2022/05/01 07:38:01;;;;;;;99.32;91.00;;;;;;;13.56;54.13;101542.54;1757409;81;21224;-45
2022/05/01 07:40:29;;;;;;;99.40;91.02;;;;;;;13.56;53.75;101540.78;1754892;81;20885;-45
2022/05/01 07:42:57;;;;;;;82.35;75.80;;;;;;;13.56;54.42;101545.14;1749948;82;20984;-45
2022/05/01 07:45:23;;;;;;;78.37;71.42;;;;;;;13.58;54.49;101537.72;1749856;81;20901;-45
2022/05/01 07:47:50;;;;;;;91.42;83.97;;;;;;;13.67;54.94;101539.33;1749892;82;21391;-45
2022/05/01 07:50:17;;;;;;;92.50;83.85;;;;;;;13.80;54.97;101547.83;1750024;82;22038;-45
2022/05/01 07:52:44;;;;;;;90.20;81.63;;;;;;;13.93;54.65;101545.47;1749881;82;20893;-45
2022/05/01 07:55:10;;;;;;;124.90;113.85;;;;;;;14.02;54.38;101544.91;1750033;82;20959;-45
2022/05/01 07:57:37;;;;;;;98.25;89.17;;;;;;;14.04;54.41;101549.22;1749903;82;20944;-45
2022/05/01 08:00:06;;;;;;;110.83;101.25;;;;;;;14.06;54.44;101548.75;1749814;82;20909;-45
2022/05/01 08:04:27;;;;;;;115.42;105.17;;;;;;;13.97;54.63;101548.02;1749945;82;21249;-45
2022/05/01 08:05:05;;;;;;;97.70;88.20;;;;;;;13.99;54.67;101548.40;1745899;82;20975;-45
2022/05/01 08:07:32;;;;;;;98.60;89.42;;;;;;;14.07;54.61;101541.78;1749972;82;21481;-45
2022/05/01 08:09:59;;;;;;;100.85;91.95;;;;;;;14.12;54.42;101543.02;1749827;81;20904;-45
2022/05/01 08:12:26;;;;;;;101.95;92.45;;;;;;;14.12;55.16;101543.86;1749847;81;21462;-45
2022/05/01 08:14:53;;;;;;;103.95;94.07;;;;;;;14.18;54.77;101544.22;1749945;81;21065;-45
2022/05/01 08:17:19;;;;;;;108.85;99.60;;;;;;;14.21;54.74;101541.13;1749756;82;20972;-45
2022/05/01 08:22:32;;;;;;;102.93;94.10;;;;;;;14.30;54.02;101540.12;1750179;82;20940;-45
2022/05/01 08:24:58;;;;;;;111.95;101.58;;;;;;;14.42;53.98;101539.48;1750183;82;20944;-45
2022/05/01 08:27:25;;;;;;;96.90;88.65;;;;;;;14.53;53.88;101537.56;1749891;82;21304;-45
2022/05/01 08:29:51;;;;;;;111.77;101.78;;;;;;;14.64;53.50;101533.00;1722336;82;21023;-45
2022/05/01 08:32:18;;;;;;;134.55;122.40;;;;;;;14.70;52.95;101532.04;1749847;82;20928;-45
2022/05/01 08:34:47;;;;;;;155.22;139.62;;;;;;;14.66;52.70;101531.23;1749766;80;20929;-45
2022/05/01 08:37:14;;;;;;;125.72;113.08;;;;;;;14.65;52.85;101529.52;1749984;82;20968;-46
2022/05/01 08:39:40;;;;;;;124.72;112.90;;;;;;;14.70;52.55;101526.83;1722058;82;21046;-45
2022/05/01 08:42:08;;;;;;;125.78;112.97;;;;;;;14.69;52.56;101522.94;1749699;82;20889;-44
2022/05/01 08:44:36;;;;;;;123.80;110.30;;;;;;;14.71;53.26;101522.49;1750011;82;21576;-44
2022/05/01 08:47:23;;;;;;;133.60;120.62;;;;;;;14.77;53.02;101523.24;1749756;82;20959;-45
2022/05/01 08:49:55;;;;;;;133.52;120.95;;;;;;;14.76;52.82;101516.31;1749884;82;20968;-45
2022/05/01 08:52:22;;;;;;;146.75;133.00;;;;;;;14.72;53.21;101521.60;1749914;82;21245;-45
2022/05/01 08:54:48;;;;;;;137.75;124.78;;;;;;;14.74;53.29;101518.09;1749643;81;20955;-45
2022/05/01 08:57:21;;;;;;;109.12;99.90;;;;;;;14.85;53.92;101505.29;1749734;82;20900;-45
2022/05/01 08:59:53;;;;;;;120.87;110.00;;;;;;;14.86;52.95;101510.48;1749784;80;20971;-45
2022/05/01 09:02:22;;;;;;;103.32;93.80;;;;;;;14.82;53.10;101506.22;1749933;82;21518;-45
2022/05/01 09:04:48;;;;;;;126.00;114.40;;;;;;;14.81;51.86;101499.30;1749863;82;21146;-45
2022/05/01 09:07:15;;;;;;;118.45;107.55;;;;;;;14.82;51.62;101500.14;1749717;81;20893;-44
2022/05/01 09:09:42;;;;;;;127.17;115.03;;;;;;;14.89;51.33;101496.52;1749599;82;20932;-45
2022/05/01 09:14:56;;;;;;;115.10;104.53;;;;;;;15.02;51.17;101501.91;1749906;82;20984;-44
2022/05/01 09:17:24;;;;;;;122.50;111.10;;;;;;;15.15;50.78;101501.20;1722357;82;22143;-44
2022/05/01 09:19:53;;;;;;;109.15;99.22;;;;;;;15.32;51.26;101494.78;1749782;82;20957;-44
2022/05/01 09:22:21;;;;;;;119.82;109.12;;;;;;;15.48;50.91;101492.23;1749801;82;20881;-45
2022/05/01 09:24:53;;;;;;;110.45;100.62;;;;;;;15.69;50.20;101487.41;1749752;82;21493;-45
2022/05/01 09:27:27;;;;;;;104.05;94.20;;;;;;;15.97;49.72;101483.33;1749665;82;20956;-45
2022/05/01 09:30:19;;;;;;;78.70;71.22;;;;;;;16.31;48.78;101480.71;1750044;82;21205;-46
2022/05/01 09:32:46;;;;;;;81.72;73.85;;;;;;;16.54;46.83;101475.76;1749937;81;21030;-47
2022/05/01 09:35:17;;;;;;;93.82;69.92;;;;;;;16.79;46.66;101476.79;1749764;81;21022;-45
2022/05/01 09:37:44;;;;;;;70.57;63.83;;;;;;;17.06;46.46;101477.39;1748345;82;21475;-45
2022/05/01 09:40:11;;;;;;;61.05;55.78;;;;;;;17.23;43.63;101476.88;1749984;82;20995;-44
2022/05/01 09:42:38;;;;;;;58.13;52.90;;;;;;;17.27;43.36;101475.01;1736377;81;21210;-45
2022/05/01 09:45:09;;;;;;;49.73;45.40;;;;;;;17.32;43.09;101467.43;1735881;82;21003;-45
2022/05/01 09:47:43;;;;;;;51.02;46.28;;;;;;;17.49;42.27;101469.52;1735721;82;21482;-44
2022/05/01 09:50:12;;;;;;;47.98;43.58;;;;;;;17.72;42.77;101462.70;1735878;82;20940;-45
2022/05/01 09:52:59;;;;;;;41.65;37.70;;;;;;;18.25;41.01;101453.11;1735967;81;20921;-45
2022/05/01 09:55:26;;;;;;;56.53;50.67;;;;;;;18.83;38.01;101457.17;1736016;82;21145;-45
2022/05/01 09:58:12;;;;;;;39.63;35.75;;;;;;;19.14;36.77;101457.79;1735814;82;20901;-46
2022/05/01 10:00:44;;;;;;;4.95;1.67;;;;;;;19.19;36.00;101453.20;1735816;82;21462;-46
2022/05/01 10:03:28;;;;;;;6.20;1.65;;;;;;;19.13;34.81;101453.45;1735973;82;20981;-46
2022/05/01 10:05:58;;;;;;;4.35;1.87;;;;;;;19.21;34.25;101452.25;1735862;81;20940;-46
2022/05/01 10:08:24;;;;;;;3.35;1.98;;;;;;;19.34;34.48;101450.47;1735730;82;21542;-44
2022/05/01 10:10:57;;;;;;;6.75;1.90;;;;;;;19.59;34.54;101456.05;1735955;82;20968;-46
2022/05/01 10:13:27;;;;;;;1.90;1.80;;;;;;;19.63;34.29;101449.27;1735886;82;21039;-44
2022/05/01 10:15:54;;;;;;;1.50;1.40;;;;;;;19.76;34.18;101444.37;1735751;81;20976;-44
2022/05/01 10:18:21;;;;;;;2.37;1.90;;;;;;;19.84;30.77;101439.28;1736104;82;20992;-46
2022/05/01 10:20:48;;;;;;;2.67;1.45;;;;;;;19.59;30.07;101445.07;1715095;82;21143;-43
2022/05/01 10:23:16;;;;;;;2.98;2.00;;;;;;;19.23;30.26;101443.02;1735836;82;20981;-44
2022/05/01 10:25:59;;;;;;;1.40;1.27;;;;;;;18.95;31.22;101450.14;1735725;81;21523;-44
2022/05/01 10:28:53;;;;;;;8.53;1.60;;;;;;;18.83;31.19;101444.06;1735868;82;20953;-45
2022/05/01 10:35:20;;;;;;;4.30;1.62;;;;;;;18.65;33.32;101442.52;1736146;82;21139;-47
2022/05/01 10:38:07;;;;;;;3.25;1.65;;;;;;;18.82;32.13;101437.11;1735792;82;20850;-45
2022/05/01 10:40:58;;;;;;;1.40;1.30;;;;;;;18.66;32.40;101439.42;1715127;82;20913;-45
2022/05/01 10:43:33;;;;;;;2.92;1.70;;;;;;;18.31;32.15;101436.32;1736912;82;21483;-45
2022/05/01 10:46:01;;;;;;;4.83;1.52;;;;;;;17.98;32.37;101439.18;1736002;82;20945;-44
2022/05/01 10:48:40;;;;;;;2.83;1.95;;;;;;;17.83;33.42;101428.30;1735947;82;21147;-45
2022/05/01 10:51:38;;;;;;;6.00;2.10;;;;;;;18.13;32.91;101429.97;1735844;82;20874;-45
2022/05/01 10:54:33;;;;;;;2.05;1.82;;;;;;;18.58;31.25;101436.23;1736204;82;21436;-44
2022/05/01 10:57:08;;;;;;;4.50;2.20;;;;;;;19.03;30.93;101431.96;1735689;82;21004;-45
2022/05/01 10:59:42;;;;;;;3.65;1.95;;;;;;;19.37;30.68;101435.43;1736037;82;21653;-45
2022/05/01 11:02:31;;;;;;;9.85;2.17;;;;;;;19.64;31.28;101419.47;1735947;82;21800;-44
2022/05/01 11:04:59;;;;;;;2.08;1.42;;;;;;;19.95;30.44;101422.14;1735294;82;20944;-45
2022/05/01 11:07:26;;;;;;;1.57;1.35;;;;;;;20.18;29.30;101420.77;1715245;82;21436;-45
2022/05/01 11:09:57;;;;;;;3.75;1.85;;;;;;;20.08;30.27;101421.19;1735893;82;21462;-45
2022/05/01 11:12:26;;;;;;;4.05;2.22;;;;;;;20.27;30.17;101412.47;1735895;82;20882;-46
2022/05/01 11:15:02;;;;;;;3.25;2.37;;;;;;;20.48;30.07;101409.37;1735848;81;22089;-45
2022/05/01 11:17:44;;;;;;;3.72;1.90;;;;;;;20.56;28.24;101405.05;1735791;82;21359;-46
2022/05/01 11:20:22;;;;;;;8.63;2.55;;;;;;;20.02;29.16;101413.55;1735899;82;20949;-46
2022/05/01 11:22:49;;;;;;;6.92;3.22;;;;;;;19.72;29.90;101419.63;1735860;82;20956;-45
2022/05/01 11:25:30;;;;;;;3.22;2.00;;;;;;;19.70;30.71;101414.88;1735903;82;20932;-46
2022/05/01 11:27:57;;;;;;;4.65;2.00;;;;;;;19.79;30.95;101414.03;1735858;81;21030;-47
2022/05/01 11:30:32;;;;;;;3.62;1.65;;;;;;;19.88;30.31;101411.48;1735967;82;21485;-45
2022/05/01 11:33:08;;;;;;;3.27;1.80;;;;;;;19.64;29.74;101414.22;1735946;82;20916;-45
2022/05/01 11:35:54;;;;;;;;;;;;;;;19.08;30.62;101415.61;1738398;82;20961;-46
2022/05/01 11:38:39;;;;;;;4.50;1.80;;;;;;;18.88;29.99;101411.95;1736200;81;20142;-45
2022/05/01 11:41:06;;;;;;;3.87;1.80;;;;;;;18.58;31.05;101413.52;1735679;81;21479;-45
2022/05/01 11:43:35;;;;;;;1.87;1.70;;;;;;;18.51;30.91;101414.62;1735817;82;20921;-45
2022/05/01 11:46:03;;;;;;;8.53;2.00;;;;;;;18.38;31.23;101401.11;1735752;82;21558;-45
2022/05/01 11:48:35;;;;;;;1.67;1.57;;;;;;;18.08;31.84;101400.86;1735878;82;20937;-46